KGEU

Glendale Municipal Airport

Glendale, Arizona, USA
METAR KGEU 220248Z 00000KT 10SM FEW060 12/M03 A2988 RMK LAST
Observed Flight Rules
Jan-22 @ 02:48 UTC (an hour ago) Visual Flight Rules
Visibility Clouds
10 miles
  • Few at 6,000' AGL
Temperatures Readings
Current 12°C / 54°F
Dewpoint -3°C / 27°F
Humidity 35%
Altimeter 29.88" Hg
Pressure 1011.82 hPa
Elevation 325
METAR KGEU 220248Z 00000KT 10SM FEW060 12/M03 A2988 RMK LAST
Observed Flight Rules
Jan-22 @ 02:48 UTC
(an hour ago)
VFR
Clouds
  • Few at 6,000' AGL
Temperature Dewpoint
12°C / 54°F -3°C / 27°F
Humidity Altimeter Pressure
35% 29.88" Hg 1011.82 hPa